Time;durP1;ratioP1;P1;durP2;ratioP2;P2;SDS_P1;SDS_P2;PMS_P1;PMS_P2;Temp;Humidity;BMP_temperature;BMP_pressure;BME280_temperature;BME280_humidity;BME280_pressure;Samples;Min_cycle;Max_cycle;Signal;HPM_P1;HPM_P2
2023/10/29 00:00:03;;;;;;;10.32;2.60;;;;;;;16.91;52.62;94516.50;4204025;28;20048;-71
2023/10/29 00:02:05;;;;;;;6.00;2.40;;;;;;;16.88;52.83;94513.44;4193170;28;20463;-70
2023/10/29 00:04:07;;;;;;;6.38;2.92;;;;;;;16.81;53.00;94512.63;4205015;28;20044;-70
2023/10/29 00:06:11;;;;;;;7.37;2.40;;;;;;;16.84;52.60;94514.84;4205038;28;20091;-70
2023/10/29 00:08:14;;;;;;;6.60;2.38;;;;;;;16.89;52.18;94512.44;4211922;28;20488;-71
2023/10/29 00:10:16;;;;;;;7.43;2.92;;;;;;;16.94;52.26;94515.28;4215021;28;20123;-70
2023/10/29 00:12:19;;;;;;;6.88;3.33;;;;;;;16.91;52.67;94513.06;4211098;28;20539;-72
2023/10/29 00:14:22;;;;;;;11.15;2.92;;;;;;;16.87;52.94;94514.47;4210430;28;20044;-69
2023/10/29 00:16:24;;;;;;;7.07;3.20;;;;;;;16.86;53.33;94518.13;4213005;28;20400;-71
2023/10/29 00:18:26;;;;;;;7.47;3.45;;;;;;;16.76;53.50;94519.31;4194868;28;20090;-69
2023/10/29 00:20:27;;;;;;;7.40;2.58;;;;;;;16.64;54.17;94520.09;4212254;28;20066;-69
2023/10/29 00:22:29;;;;;;;6.70;2.97;;;;;;;16.55;53.75;94527.41;4207614;28;20480;-70
2023/10/29 00:24:31;;;;;;;9.68;2.78;;;;;;;16.33;53.60;94532.03;4212356;28;20040;-69
2023/10/29 00:26:33;;;;;;;9.98;2.50;;;;;;;15.88;53.59;94535.09;4215229;28;20408;-72
2023/10/29 00:28:34;;;;;;;10.15;3.00;;;;;;;15.82;54.09;94541.16;4208194;28;20040;-69
2023/10/29 00:30:37;;;;;;;8.15;2.63;;;;;;;15.94;54.08;94542.22;4208487;28;20048;-71
2023/10/29 00:32:39;;;;;;;5.72;2.33;;;;;;;16.10;53.54;94525.22;4208896;28;20044;-70
2023/10/29 00:34:41;;;;;;;8.07;2.30;;;;;;;16.25;53.08;94538.28;4215340;28;20048;-69
2023/10/29 00:36:43;;;;;;;9.98;2.72;;;;;;;16.38;52.50;94532.22;4214219;28;20481;-69
2023/10/29 00:38:45;;;;;;;7.78;2.45;;;;;;;16.46;52.56;94533.91;4213901;28;20052;-70
2023/10/29 00:40:47;;;;;;;6.00;2.53;;;;;;;16.51;52.59;94526.97;4214501;28;20455;-70
2023/10/29 00:42:48;;;;;;;5.63;2.25;;;;;;;16.56;52.32;94529.00;4196453;28;20058;-72
2023/10/29 00:44:51;;;;;;;6.00;2.40;;;;;;;16.59;52.15;94532.09;4211673;28;20150;-70
2023/10/29 00:46:53;;;;;;;6.13;2.63;;;;;;;16.63;52.12;94534.31;4204553;28;20040;-70
2023/10/29 00:48:56;;;;;;;5.70;2.28;;;;;;;16.67;52.04;94539.03;4214689;28;20056;-70
2023/10/29 00:50:58;;;;;;;7.30;2.45;;;;;;;16.68;52.23;94537.19;4189686;28;20095;-70
2023/10/29 00:53:00;;;;;;;7.47;2.42;;;;;;;16.66;52.51;94542.69;4195203;28;20484;-71
2023/10/29 00:55:03;;;;;;;7.30;2.40;;;;;;;16.66;52.63;94534.75;4196461;28;20041;-69
2023/10/29 00:57:07;;;;;;;8.68;2.85;;;;;;;16.64;52.85;94543.91;4214441;28;20105;-69
2023/10/29 00:59:11;;;;;;;8.77;3.30;;;;;;;16.58;52.81;94542.84;4213510;28;20055;-69
2023/10/29 01:01:13;;;;;;;6.07;2.40;;;;;;;16.40;53.58;94545.25;4192390;28;20059;-69
2023/10/29 01:03:16;;;;;;;8.05;2.53;;;;;;;16.32;53.84;94546.25;4179279;28;20434;-71
2023/10/29 01:05:18;;;;;;;8.85;2.92;;;;;;;16.28;54.04;94552.94;4214289;28;20039;-70
2023/10/29 01:07:20;;;;;;;5.10;2.40;;;;;;;16.25;54.20;94555.97;4195586;28;20220;-70
2023/10/29 01:09:22;;;;;;;9.48;2.80;;;;;;;16.25;54.31;94556.78;4194523;28;20052;-71
2023/10/29 01:11:23;;;;;;;6.75;2.20;;;;;;;16.27;54.41;94556.59;4207804;28;20664;-71
2023/10/29 01:13:25;;;;;;;6.50;2.45;;;;;;;16.29;54.17;94554.59;4213831;28;20047;-70
2023/10/29 01:15:27;;;;;;;8.00;2.40;;;;;;;16.29;53.89;94554.59;4204972;28;20368;-72
2023/10/29 01:17:29;;;;;;;5.05;2.42;;;;;;;16.31;53.88;94553.38;4213787;28;20416;-70
2023/10/29 01:19:31;;;;;;;6.57;2.70;;;;;;;16.32;53.84;94554.16;4206389;28;20080;-72
2023/10/29 01:21:36;;;;;;;6.60;2.55;;;;;;;16.32;53.83;94548.88;4199764;28;20965;-68
2023/10/29 01:23:38;;;;;;;5.25;2.63;;;;;;;16.32;53.49;94549.69;4209943;28;20044;-69
2023/10/29 01:25:41;;;;;;;5.15;2.53;;;;;;;16.31;53.51;94544.63;4195657;28;20048;-72
2023/10/29 01:27:44;;;;;;;8.05;2.80;;;;;;;16.29;53.67;94550.09;4211242;28;20048;-71
2023/10/29 01:29:46;;;;;;;5.20;2.30;;;;;;;16.27;53.55;94552.13;4211377;28;20483;-71
2023/10/29 01:31:48;;;;;;;8.25;3.75;;;;;;;16.08;54.33;94558.16;4213696;28;20048;-71
2023/10/29 01:33:51;;;;;;;9.82;3.47;;;;;;;15.86;55.75;94558.25;4204749;28;20048;-70
2023/10/29 01:35:53;;;;;;;12.98;3.25;;;;;;;15.77;56.65;94559.41;4212669;28;20125;-71
2023/10/29 01:37:55;;;;;;;7.57;2.85;;;;;;;15.73;56.93;94558.16;4210293;28;20043;-71
2023/10/29 01:39:57;;;;;;;9.20;2.90;;;;;;;15.73;56.86;94564.25;4204165;28;20105;-71
2023/10/29 01:41:59;;;;;;;7.88;3.20;;;;;;;15.71;56.99;94558.34;4184869;28;20059;-70
2023/10/29 01:44:01;;;;;;;7.90;3.13;;;;;;;15.74;56.94;94568.53;4192449;28;20054;-69
2023/10/29 01:46:04;;;;;;;7.65;3.25;;;;;;;15.76;56.85;94570.97;4195778;28;20049;-69
2023/10/29 01:48:06;;;;;;;8.98;3.42;;;;;;;15.79;56.85;94569.75;4180885;28;20108;-70
2023/10/29 01:50:09;;;;;;;6.60;3.22;;;;;;;15.59;57.68;94569.63;4196602;28;20083;-70
2023/10/29 01:52:11;;;;;;;9.95;3.60;;;;;;;15.56;57.84;94571.63;4181065;28;20084;-69
2023/10/29 01:54:14;;;;;;;8.73;3.53;;;;;;;15.54;58.12;94568.38;4173449;28;20059;-70
2023/10/29 01:56:16;;;;;;;10.23;3.85;;;;;;;15.56;58.44;94571.63;4196967;28;20076;-69
2023/10/29 01:58:18;;;;;;;10.93;3.85;;;;;;;15.58;58.27;94571.44;4194206;28;20048;-70
2023/10/29 02:00:20;;;;;;;9.23;3.67;;;;;;;15.44;58.85;94570.53;4196024;28;20071;-69
2023/10/29 02:02:22;;;;;;;9.13;4.18;;;;;;;15.29;59.34;94575.06;4172446;28;20444;-70
2023/10/29 02:04:26;;;;;;;8.43;3.53;;;;;;;15.30;59.11;94576.72;4176177;28;20481;-70
2023/10/29 02:06:30;;;;;;;8.95;4.13;;;;;;;15.38;59.26;94573.94;4201783;28;20048;-71
2023/10/29 02:08:32;;;;;;;10.35;3.92;;;;;;;15.43;58.90;94574.19;4193866;28;20055;-70
2023/10/29 02:10:33;;;;;;;8.80;3.55;;;;;;;15.48;58.81;94573.59;4209498;28;20097;-70
2023/10/29 02:12:35;;;;;;;7.90;3.85;;;;;;;15.49;58.75;94573.41;4193783;28;20381;-71
2023/10/29 02:14:40;;;;;;;18.35;4.97;;;;;;;15.55;58.59;94574.44;4195656;28;20135;-70
2023/10/29 02:16:43;;;;;;;9.40;3.67;;;;;;;15.60;58.60;94565.97;4195888;28;20048;-69
2023/10/29 02:18:45;;;;;;;10.82;3.33;;;;;;;15.63;58.22;94573.50;4194030;28;20044;-69
2023/10/29 02:20:46;;;;;;;9.65;3.72;;;;;;;15.54;58.18;94578.13;4195023;28;20052;-69
2023/10/29 02:22:48;;;;;;;9.27;3.28;;;;;;;15.40;58.54;94579.84;4207173;28;20160;-70
2023/10/29 02:24:50;;;;;;;9.23;4.13;;;;;;;15.06;59.17;94578.75;4195693;28;20040;-72
2023/10/29 02:26:52;;;;;;;6.60;3.40;;;;;;;14.77;60.40;94589.44;4197595;28;20048;-70
2023/10/29 02:28:54;;;;;;;8.73;3.63;;;;;;;14.82;60.13;94584.41;4186471;28;20056;-70
2023/10/29 02:30:55;;;;;;;7.57;3.08;;;;;;;14.92;59.35;94574.34;4193209;28;20094;-70
2023/10/29 02:32:57;;;;;;;6.85;2.90;;;;;;;15.05;58.50;94568.38;4195817;28;20041;-69
2023/10/29 02:35:00;;;;;;;9.60;3.60;;;;;;;15.10;58.01;94571.25;4194808;28;20071;-70
2023/10/29 02:37:01;;;;;;;5.78;2.92;;;;;;;15.20;57.60;94570.94;4192678;28;20059;-70
2023/10/29 02:39:03;;;;;;;7.65;2.58;;;;;;;15.27;57.27;94574.44;4204530;28;20098;-71
2023/10/29 02:41:06;;;;;;;6.95;2.67;;;;;;;15.30;56.38;94577.53;4195816;28;20102;-69
2023/10/29 02:43:10;;;;;;;5.88;2.33;;;;;;;15.29;55.93;94580.34;4196117;28;20052;-68
2023/10/29 02:45:12;;;;;;;6.97;2.33;;;;;;;15.33;55.99;94576.34;4194740;28;20044;-71
2023/10/29 02:47:14;;;;;;;7.38;2.58;;;;;;;15.33;55.40;94586.88;4187291;28;20044;-71
2023/10/29 02:49:15;;;;;;;7.75;2.50;;;;;;;15.32;55.92;94578.16;4195993;28;20052;-70
2023/10/29 02:51:17;;;;;;;10.02;2.38;;;;;;;15.20;56.23;94586.78;4195792;28;20070;-71
2023/10/29 02:53:21;;;;;;;8.25;2.83;;;;;;;15.02;57.38;94584.59;4194500;28;20052;-70
2023/10/29 02:55:22;;;;;;;11.07;3.27;;;;;;;15.01;57.85;94583.78;4194893;28;20398;-68
2023/10/29 02:57:24;;;;;;;6.72;3.15;;;;;;;15.02;58.30;94589.88;4194233;28;20284;-71
2023/10/29 02:59:26;;;;;;;10.90;4.18;;;;;;;15.02;59.18;94584.59;4193983;28;20070;-70
2023/10/29 03:01:28;;;;;;;12.50;4.28;;;;;;;14.72;60.31;94587.34;4210194;28;20048;-71
2023/10/29 03:03:33;;;;;;;11.02;4.88;;;;;;;14.61;60.91;94591.31;4191888;28;20059;-70
2023/10/29 03:05:36;;;;;;;11.38;4.22;;;;;;;14.57;61.03;94602.41;4186424;28;20132;-71
2023/10/29 03:07:54;;;;;;;10.55;4.47;;;;;;;14.42;61.77;94597.94;4181858;28;20048;-69
2023/10/29 03:09:57;;;;;;;12.90;5.05;;;;;;;14.42;62.02;94600.59;4188054;28;20057;-73
2023/10/29 03:12:00;;;;;;;12.95;4.45;;;;;;;14.41;61.84;94600.75;4205665;28;20049;-71
2023/10/29 03:14:02;;;;;;;9.13;4.40;;;;;;;14.43;61.94;94606.66;4211992;28;20407;-71
2023/10/29 03:16:05;;;;;;;10.85;4.60;;;;;;;14.41;61.64;94612.13;4209168;28;20128;-71
2023/10/29 03:18:07;;;;;;;11.00;4.53;;;;;;;14.41;62.05;94613.94;4210860;28;20052;-69
2023/10/29 03:20:11;;;;;;;9.98;4.50;;;;;;;14.33;62.18;94617.50;4189945;28;20052;-71
2023/10/29 03:22:13;;;;;;;8.20;4.05;;;;;;;14.33;62.10;94618.31;4211325;28;20048;-67
2023/10/29 03:24:15;;;;;;;11.65;4.13;;;;;;;14.38;61.83;94617.75;4212123;28;20063;-70
2023/10/29 03:26:17;;;;;;;12.82;4.95;;;;;;;14.40;61.89;94607.84;4195081;28;20535;-70
2023/10/29 03:28:19;;;;;;;13.75;4.45;;;;;;;14.43;61.47;94610.13;4194524;28;20079;-68
2023/10/29 03:30:21;;;;;;;8.45;4.43;;;;;;;14.46;61.67;94608.94;4210227;28;20122;-69
2023/10/29 03:32:23;;;;;;;8.43;3.97;;;;;;;14.50;61.36;94610.22;4211222;28;20079;-69
2023/10/29 03:34:25;;;;;;;11.30;4.28;;;;;;;14.51;61.28;94611.84;4211584;28;20123;-69
2023/10/29 03:36:27;;;;;;;11.18;4.05;;;;;;;14.56;61.38;94621.84;4211974;28;20044;-70
2023/10/29 03:38:28;;;;;;;6.88;4.10;;;;;;;14.62;61.08;94621.91;4211582;28;20048;-71
2023/10/29 03:40:30;;;;;;;7.60;3.78;;;;;;;14.65;61.21;94631.31;4194265;28;20524;-69
2023/10/29 03:42:33;;;;;;;12.55;4.78;;;;;;;14.64;61.39;94624.38;4210777;28;20553;-71
2023/10/29 03:44:35;;;;;;;10.98;4.88;;;;;;;14.62;61.46;94629.03;4207215;28;20135;-69
2023/10/29 03:46:37;;;;;;;13.02;4.70;;;;;;;14.65;61.43;94629.47;4211113;28;20048;-70
2023/10/29 03:48:44;;;;;;;9.47;4.47;;;;;;;14.68;61.20;94625.66;4212992;28;20051;-68
2023/10/29 03:50:46;;;;;;;8.98;4.30;;;;;;;14.66;61.25;94625.81;4207658;28;20269;-70
2023/10/29 03:52:48;;;;;;;9.23;4.35;;;;;;;14.59;61.36;94632.84;4173185;28;20136;-69
2023/10/29 03:54:50;;;;;;;8.55;4.28;;;;;;;14.53;61.40;94630.91;4203959;28;20052;-70
2023/10/29 03:56:52;;;;;;;9.57;4.60;;;;;;;14.51;61.68;94635.56;4215343;28;20055;-68
2023/10/29 03:58:54;;;;;;;8.32;4.45;;;;;;;14.50;61.77;94640.00;4211816;28;20048;-73
2023/10/29 04:00:57;;;;;;;8.48;4.05;;;;;;;14.50;61.82;94641.84;4211916;28;20479;-71
2023/10/29 04:02:59;;;;;;;8.82;4.20;;;;;;;14.50;61.69;94649.75;4202474;28;20416;-68
2023/10/29 04:05:00;;;;;;;11.10;4.43;;;;;;;14.50;61.55;94649.75;4194700;28;20044;-71
2023/10/29 04:07:11;;;;;;;8.98;3.90;;;;;;;14.51;61.50;94651.38;4215163;28;20052;-69
2023/10/29 04:09:13;;;;;;;11.17;4.40;;;;;;;14.49;61.31;94646.28;4215138;28;20047;-70
2023/10/29 04:11:15;;;;;;;11.77;4.30;;;;;;;14.50;61.68;94652.38;4214769;28;20044;-70
2023/10/29 04:13:17;;;;;;;9.48;4.05;;;;;;;14.36;61.77;94651.38;4215047;28;20059;-71
2023/10/29 04:15:19;;;;;;;10.68;4.22;;;;;;;14.36;61.98;94654.03;4213181;28;20483;-70
2023/10/29 04:17:21;;;;;;;12.93;4.75;;;;;;;14.22;62.00;94655.69;4202975;28;20480;-69
2023/10/29 04:19:23;;;;;;;9.65;4.50;;;;;;;14.08;62.60;94651.22;4214297;28;20044;-69
2023/10/29 04:21:25;;;;;;;14.10;4.53;;;;;;;13.99;62.76;94641.78;4212864;28;20581;-70
2023/10/29 04:23:27;;;;;;;15.02;4.63;;;;;;;13.98;63.31;94638.34;4213365;28;20060;-69
2023/10/29 04:25:29;;;;;;;11.68;4.28;;;;;;;14.04;63.04;94647.31;4201660;28;20048;-67
2023/10/29 04:27:31;;;;;;;12.95;4.97;;;;;;;14.11;62.65;94640.31;4210788;28;20076;-70
2023/10/29 04:29:32;;;;;;;10.30;4.63;;;;;;;14.15;62.67;94641.59;4213963;28;20127;-70
2023/10/29 04:31:35;;;;;;;11.00;5.18;;;;;;;14.14;62.37;94632.88;4196607;28;20479;-70
2023/10/29 04:33:38;;;;;;;10.68;5.25;;;;;;;14.11;62.52;94632.41;4213903;28;20047;-71
2023/10/29 04:35:39;;;;;;;11.43;5.22;;;;;;;14.16;62.60;94627.44;4214068;28;20044;-70
2023/10/29 04:37:41;;;;;;;9.73;4.30;;;;;;;14.22;62.26;94631.97;4207100;28;20052;-69
2023/10/29 04:39:43;;;;;;;13.25;5.13;;;;;;;14.24;62.23;94632.59;4193266;28;20171;-70
2023/10/29 04:41:48;;;;;;;12.95;4.57;;;;;;;14.26;62.02;94632.41;4198180;28;20119;-71
2023/10/29 04:43:52;;;;;;;12.13;4.30;;;;;;;14.27;61.75;94636.69;4214475;28;20083;-69
2023/10/29 04:45:56;;;;;;;11.55;4.75;;;;;;;14.21;62.20;94647.94;4207259;28;20076;-69
2023/10/29 04:47:58;;;;;;;11.52;4.65;;;;;;;13.48;62.94;94647.69;4204258;28;20510;-69
2023/10/29 04:50:01;;;;;;;11.03;4.67;;;;;;;12.65;65.25;94654.50;4194857;28;20488;-69
2023/10/29 04:52:03;;;;;;;10.20;4.75;;;;;;;12.16;66.77;94655.53;4214251;28;20051;-70
2023/10/29 04:54:06;;;;;;;12.27;4.82;;;;;;;12.09;66.90;94651.97;4214848;28;20063;-68
2023/10/29 04:56:09;;;;;;;12.10;5.05;;;;;;;12.07;66.84;94652.13;4213460;28;20101;-70
2023/10/29 04:58:11;;;;;;;11.60;4.63;;;;;;;12.04;66.98;94662.13;4183872;28;20055;-70
2023/10/29 05:00:13;;;;;;;17.00;5.28;;;;;;;12.02;67.40;94664.13;4208649;28;20515;-70
2023/10/29 05:02:18;;;;;;;9.80;4.40;;;;;;;12.11;67.39;94657.88;4201700;28;20056;-71
2023/10/29 05:04:20;;;;;;;13.10;5.07;;;;;;;12.37;66.83;94667.25;4213765;28;20052;-71
2023/10/29 05:06:22;;;;;;;11.52;4.60;;;;;;;12.61;65.98;94669.81;4203263;28;20050;-70
2023/10/29 05:08:24;;;;;;;10.07;4.95;;;;;;;12.86;65.08;94673.13;4188160;28;20107;-70
2023/10/29 05:10:28;;;;;;;15.23;4.55;;;;;;;13.09;64.24;94667.84;4209245;28;20048;-71
2023/10/29 05:12:30;;;;;;;10.93;4.72;;;;;;;13.37;63.84;94680.50;4213549;28;20135;-71
2023/10/29 05:14:32;;;;;;;13.70;4.88;;;;;;;13.62;63.08;94683.78;4192191;28;20560;-72
2023/10/29 05:16:33;;;;;;;11.80;4.50;;;;;;;13.75;62.14;94677.91;4189231;28;20076;-71
2023/10/29 05:18:35;;;;;;;9.70;4.60;;;;;;;13.81;61.96;94694.78;4213173;28;20097;-70
2023/10/29 05:20:40;;;;;;;14.40;5.63;;;;;;;13.83;61.49;94704.16;4195527;28;20057;-70
2023/10/29 05:22:42;;;;;;;12.60;6.88;;;;;;;13.80;60.95;94701.88;4204614;28;20055;-69
2023/10/29 05:24:43;;;;;;;15.82;5.53;;;;;;;13.69;61.06;94704.94;4193271;28;20491;-72
2023/10/29 05:26:45;;;;;;;13.50;6.05;;;;;;;13.74;60.97;94702.56;4214182;28;20416;-72
2023/10/29 05:28:47;;;;;;;13.00;5.97;;;;;;;13.83;60.23;94701.53;4203935;28;20401;-71
2023/10/29 05:30:49;;;;;;;11.07;5.30;;;;;;;13.85;59.23;94699.53;4204611;28;20050;-71
2023/10/29 05:32:51;;;;;;;9.20;5.10;;;;;;;13.82;59.15;94709.59;4208467;28;20048;-71
2023/10/29 05:34:54;;;;;;;14.27;5.63;;;;;;;13.86;59.29;94701.16;4212856;28;20048;-70
2023/10/29 05:36:56;;;;;;;12.15;5.60;;;;;;;13.81;59.62;94707.94;4213175;28;20111;-72
2023/10/29 05:38:59;;;;;;;12.48;5.85;;;;;;;13.78;60.13;94710.94;4212513;28;20052;-71
2023/10/29 05:41:00;;;;;;;19.23;6.43;;;;;;;13.75;59.58;94717.38;4196173;28;20060;-71
2023/10/29 05:43:02;;;;;;;12.68;6.25;;;;;;;13.72;59.77;94713.31;4212080;28;20070;-70
2023/10/29 05:45:06;;;;;;;17.33;6.25;;;;;;;13.75;59.80;94708.69;4211288;28;20415;-69
2023/10/29 05:47:08;;;;;;;13.05;5.93;;;;;;;13.89;59.90;94711.31;4196280;28;20135;-70
2023/10/29 05:49:10;;;;;;;12.70;6.30;;;;;;;14.06;59.21;94719.06;4214068;28;20060;-72
2023/10/29 05:51:17;;;;;;;12.82;6.32;;;;;;;14.23;59.08;94720.53;4199222;28;20055;-71
2023/10/29 05:53:19;;;;;;;11.23;5.30;;;;;;;14.32;57.75;94719.44;4195231;28;20059;-71
2023/10/29 05:55:22;;;;;;;11.85;5.47;;;;;;;14.41;57.72;94729.91;4213013;28;20051;-71
2023/10/29 05:57:24;;;;;;;14.50;6.63;;;;;;;14.34;58.16;94735.88;4213625;28;20048;-72
2023/10/29 05:59:28;;;;;;;20.70;6.78;;;;;;;14.21;58.32;94740.97;4210985;28;20071;-71
2023/10/29 06:01:31;;;;;;;12.20;6.13;;;;;;;14.16;58.89;94740.72;4212130;28;20055;-71
2023/10/29 06:03:34;;;;;;;13.55;6.97;;;;;;;14.27;58.88;94744.72;4213143;28;20095;-70
2023/10/29 06:05:36;;;;;;;13.70;7.30;;;;;;;14.33;58.33;94746.63;4213507;28;20087;-72
2023/10/29 06:07:43;;;;;;;16.23;7.43;;;;;;;13.96;59.24;94750.09;4195760;28;20040;-72
2023/10/29 06:09:48;;;;;;;14.57;7.43;;;;;;;13.34;60.78;94762.44;4207942;28;20083;-72
2023/10/29 06:11:49;;;;;;;14.75;7.00;;;;;;;12.97;62.23;94763.94;4208477;28;20140;-72
2023/10/29 06:13:53;;;;;;;17.20;7.35;;;;;;;12.84;62.56;94759.22;4210164;28;20054;-73
2023/10/29 06:15:55;;;;;;;;;;;;;;;12.94;62.49;94761.63;4210931;28;20481;-70
2023/10/29 06:17:57;;;;;;;11.90;5.95;;;;;;;13.06;62.73;94762.91;4195471;28;20382;-70
2023/10/29 06:20:03;;;;;;;15.60;6.13;;;;;;;13.23;62.09;94754.94;4209992;28;20464;-71
2023/10/29 06:22:08;;;;;;;14.23;6.95;;;;;;;13.53;61.68;94755.91;4195065;28;20052;-71
2023/10/29 06:24:10;;;;;;;14.48;7.05;;;;;;;13.88;60.71;94748.38;4191326;28;20045;-72
2023/10/29 06:26:13;;;;;;;15.60;5.88;;;;;;;14.21;59.53;94755.97;4194840;28;20048;-70
2023/10/29 06:28:14;;;;;;;14.60;6.57;;;;;;;14.48;59.19;94757.19;4211315;28;20493;-71
2023/10/29 06:30:16;;;;;;;12.48;6.55;;;;;;;14.69;58.56;94759.94;4202133;28;20593;-70
2023/10/29 06:32:19;;;;;;;12.30;5.97;;;;;;;14.89;58.15;94764.66;4211833;28;20040;-71
2023/10/29 06:34:24;;;;;;;13.70;6.75;;;;;;;15.04;57.39;94773.34;4213295;28;20052;-73
2023/10/29 06:36:25;;;;;;;10.85;6.28;;;;;;;15.18;56.98;94769.03;4212385;28;20044;-72
2023/10/29 06:38:28;;;;;;;13.63;6.55;;;;;;;15.34;56.71;94770.66;4212843;28;20519;-71
2023/10/29 06:40:29;;;;;;;13.55;6.47;;;;;;;15.45;56.37;94786.00;4212346;28;20044;-73
2023/10/29 06:42:31;;;;;;;16.55;7.68;;;;;;;15.55;55.91;94783.88;4213028;28;20048;-72
2023/10/29 06:44:33;;;;;;;12.65;6.50;;;;;;;15.62;55.86;94785.78;4211850;28;20127;-71
2023/10/29 06:46:35;;;;;;;10.15;5.72;;;;;;;15.71;55.58;94782.84;4178124;28;20106;-71
2023/10/29 06:48:41;;;;;;;9.05;4.93;;;;;;;15.83;55.19;94783.16;4195316;28;20055;-73
2023/10/29 06:50:43;;;;;;;11.80;5.40;;;;;;;15.98;55.07;94783.06;4213031;28;20047;-70
2023/10/29 06:52:45;;;;;;;13.48;5.00;;;;;;;16.10;54.93;94784.19;4194693;28;20135;-71
2023/10/29 06:54:47;;;;;;;11.45;5.68;;;;;;;16.21;54.76;94784.69;4212471;28;20044;-70
2023/10/29 06:56:49;;;;;;;12.23;6.50;;;;;;;16.28;54.70;94788.19;4212303;28;20124;-71
2023/10/29 06:58:51;;;;;;;13.32;5.30;;;;;;;16.39;54.60;94782.41;4212744;28;20079;-71
2023/10/29 07:00:54;;;;;;;11.73;5.43;;;;;;;16.48;54.30;94791.81;4211532;28;20044;-72
2023/10/29 07:02:56;;;;;;;8.60;5.07;;;;;;;16.59;53.31;94788.63;4194026;28;20083;-74
2023/10/29 07:05:01;;;;;;;14.02;5.30;;;;;;;16.73;53.44;94800.09;4194217;28;20484;-73
2023/10/29 07:07:04;;;;;;;12.82;5.80;;;;;;;16.68;53.22;94802.50;4211710;28;20050;-70
2023/10/29 07:09:07;;;;;;;13.23;5.75;;;;;;;16.55;53.33;94808.53;4209986;28;20048;-73
2023/10/29 07:11:09;;;;;;;13.95;5.68;;;;;;;16.47;53.57;94807.84;4201903;28;20044;-73
2023/10/29 07:13:11;;;;;;;12.00;5.80;;;;;;;16.52;53.58;94800.16;4212683;28;20272;-72
2023/10/29 07:15:13;;;;;;;11.48;5.65;;;;;;;16.63;53.68;94799.63;4194453;28;20489;-71
2023/10/29 07:17:16;;;;;;;12.80;5.35;;;;;;;16.71;53.10;94796.84;4197532;28;20464;-72
2023/10/29 07:19:20;;;;;;;11.53;5.53;;;;;;;16.60;53.19;94805.28;4197350;28;20493;-72
2023/10/29 07:21:21;;;;;;;10.50;4.97;;;;;;;16.56;53.38;94788.19;4197853;28;20285;-71
2023/10/29 07:23:26;;;;;;;10.55;4.82;;;;;;;16.69;53.54;94787.44;4214043;28;20488;-74
2023/10/29 07:25:27;;;;;;;11.73;5.35;;;;;;;16.90;52.76;94795.31;4214022;28;20044;-71
2023/10/29 07:27:30;;;;;;;10.73;4.43;;;;;;;17.00;51.84;94800.28;4215643;28;20122;-73
2023/10/29 07:29:32;;;;;;;13.23;4.45;;;;;;;16.96;51.64;94804.31;4197263;28;20139;-71
2023/10/29 07:31:34;;;;;;;9.55;3.63;;;;;;;16.95;51.60;94808.81;4196826;28;20091;-71
2023/10/29 07:33:35;;;;;;;13.38;3.78;;;;;;;17.14;51.37;94804.63;4212093;28;20131;-72
2023/10/29 07:35:38;;;;;;;12.40;3.92;;;;;;;17.27;51.05;94805.69;4172198;28;20124;-73
2023/10/29 07:37:40;;;;;;;11.60;3.95;;;;;;;17.45;50.76;94802.50;4214292;28;20048;-75
2023/10/29 07:39:42;;;;;;;11.15;4.20;;;;;;;17.63;50.19;94801.94;4188570;28;20150;-72
2023/10/29 07:41:44;;;;;;;10.70;4.50;;;;;;;17.80;49.96;94796.03;4214183;28;20043;-71
2023/10/29 07:43:47;;;;;;;10.65;4.30;;;;;;;17.83;49.33;94804.66;4205819;28;20051;-70
2023/10/29 07:45:51;;;;;;;12.55;4.53;;;;;;;17.90;49.52;94806.31;4206956;28;20051;-74
2023/10/29 07:47:54;;;;;;;8.50;4.78;;;;;;;17.94;49.24;94812.00;4201687;28;20049;-70
2023/10/29 07:49:56;;;;;;;10.95;4.72;;;;;;;17.81;48.95;94810.94;4195697;28;20456;-73
2023/10/29 07:51:58;;;;;;;11.60;3.67;;;;;;;17.85;49.34;94806.06;4197255;28;20438;-71
2023/10/29 07:53:59;;;;;;;10.18;4.05;;;;;;;17.91;49.20;94809.75;4197581;28;20115;-70
2023/10/29 07:56:13;;;;;;;11.00;3.95;;;;;;;17.95;48.95;94803.84;4214134;28;20052;-72
2023/10/29 07:58:15;;;;;;;7.15;3.72;;;;;;;18.12;48.95;94798.16;4203847;28;20043;-71
2023/10/29 08:00:17;;;;;;;13.38;4.50;;;;;;;18.23;48.18;94796.75;4213556;28;20052;-73
2023/10/29 08:02:19;;;;;;;11.68;4.45;;;;;;;18.33;48.03;94795.31;4204118;28;20071;-75
2023/10/29 08:04:21;;;;;;;12.88;4.45;;;;;;;18.44;47.68;94787.75;4213692;28;20132;-72
2023/10/29 08:06:23;;;;;;;8.27;4.13;;;;;;;18.54;48.19;94796.09;4208811;28;20535;-72
2023/10/29 08:08:25;;;;;;;7.00;4.10;;;;;;;18.66;47.80;94796.31;4188362;28;20052;-75
2023/10/29 08:10:26;;;;;;;14.52;4.03;;;;;;;18.81;47.42;94791.59;4215194;28;20052;-71
2023/10/29 08:12:29;;;;;;;11.98;5.03;;;;;;;18.97;47.13;94792.97;4203758;28;20442;-73
2023/10/29 08:14:31;;;;;;;7.65;3.80;;;;;;;19.05;46.24;94792.75;4210049;28;20119;-72
2023/10/29 08:16:33;;;;;;;10.18;4.38;;;;;;;18.70;46.98;94806.28;4208644;28;20519;-74
2023/10/29 08:18:34;;;;;;;10.52;4.57;;;;;;;18.26;47.73;94801.63;4193682;28;20505;-71
2023/10/29 08:20:37;;;;;;;6.80;4.07;;;;;;;18.09;48.06;94810.00;4213764;28;20522;-71
2023/10/29 08:22:39;;;;;;;11.38;4.53;;;;;;;17.93;48.83;94797.13;4215071;28;20097;-70
2023/10/29 08:24:40;;;;;;;12.23;3.92;;;;;;;17.38;49.52;94808.59;4215397;28;20046;-72
2023/10/29 08:26:42;;;;;;;10.90;4.22;;;;;;;16.90;51.08;94815.69;4205366;28;20044;-72
2023/10/29 08:28:44;;;;;;;12.82;3.58;;;;;;;17.02;50.79;94814.13;4214326;28;20487;-72
2023/10/29 08:30:49;;;;;;;10.40;3.58;;;;;;;17.11;50.55;94815.59;4214780;28;20443;-71
2023/10/29 08:32:51;;;;;;;8.75;4.05;;;;;;;17.28;50.47;94812.63;4214422;28;20051;-72
2023/10/29 08:34:53;;;;;;;9.50;3.63;;;;;;;17.67;49.88;94816.41;4214564;28;20510;-70
2023/10/29 08:36:55;;;;;;;9.35;3.88;;;;;;;18.00;49.04;94808.53;4214493;28;20048;-72
2023/10/29 08:38:57;;;;;;;9.32;4.75;;;;;;;18.33;48.46;94819.19;4190213;28;20060;-74
2023/10/29 08:40:59;;;;;;;7.90;4.13;;;;;;;18.34;47.85;94807.53;4209230;28;20044;-74
2023/10/29 08:43:04;;;;;;;11.10;4.00;;;;;;;18.15;48.28;94808.34;4213237;28;20059;-72
2023/10/29 08:45:08;;;;;;;10.13;4.57;;;;;;;17.66;49.13;94818.25;4196515;28;20512;-72
2023/10/29 08:47:10;;;;;;;12.25;4.55;;;;;;;17.76;49.25;94821.31;4188109;28;20127;-72
2023/10/29 08:49:12;;;;;;;14.57;4.80;;;;;;;17.84;49.51;94822.19;4180661;28;20052;-73
2023/10/29 08:51:15;;;;;;;9.77;4.53;;;;;;;18.08;48.50;94820.81;4211589;28;20048;-74
2023/10/29 08:53:17;;;;;;;14.00;4.00;;;;;;;18.28;48.62;94832.22;4213315;28;20047;-70
2023/10/29 08:55:19;;;;;;;8.70;4.40;;;;;;;18.64;47.76;94825.69;4213862;28;20540;-72
2023/10/29 08:57:21;;;;;;;11.02;4.43;;;;;;;18.95;46.84;94824.22;4214433;28;20476;-73
2023/10/29 08:59:26;;;;;;;12.40;4.30;;;;;;;19.16;46.09;94821.31;4200251;28;20045;-72
2023/10/29 09:01:27;;;;;;;10.45;4.25;;;;;;;19.42;45.71;94822.25;4208539;28;20535;-70
2023/10/29 09:03:30;;;;;;;9.45;4.30;;;;;;;19.65;45.45;94822.53;4197171;28;20045;-74
2023/10/29 09:05:32;;;;;;;9.20;4.40;;;;;;;19.76;45.41;94820.28;4195478;28;20136;-74
2023/10/29 09:07:35;;;;;;;12.88;4.55;;;;;;;19.84;44.95;94826.16;4202704;28;20558;-73
2023/10/29 09:09:37;;;;;;;;;;;;;;;19.99;44.53;94815.25;4196993;28;20452;-73
2023/10/29 09:11:43;;;;;;;11.50;4.07;;;;;;;19.99;44.17;94815.25;4206048;28;19959;-73
2023/10/29 09:13:45;;;;;;;10.10;3.97;;;;;;;20.02;44.37;94816.66;4209204;28;20079;-72
2023/10/29 09:15:48;;;;;;;8.50;3.55;;;;;;;20.10;43.91;94816.38;4211704;28;20048;-73
2023/10/29 09:17:50;;;;;;;8.20;3.50;;;;;;;20.15;43.97;94808.56;4195952;28;20049;-71
2023/10/29 09:19:52;;;;;;;12.13;4.18;;;;;;;20.30;43.61;94810.91;4214078;28;20048;-73
2023/10/29 09:21:54;;;;;;;7.63;3.53;;;;;;;20.49;43.19;94811.00;4212412;28;20197;-72
2023/10/29 09:23:56;;;;;;;10.38;3.72;;;;;;;20.65;43.04;94813.13;4211587;28;20056;-73
2023/10/29 09:25:59;;;;;;;10.73;4.13;;;;;;;20.84;42.70;94803.31;4214012;28;20044;-74
2023/10/29 09:28:04;;;;;;;11.38;3.95;;;;;;;20.98;42.02;94812.81;4213445;28;20087;-72
2023/10/29 09:30:09;;;;;;;9.30;3.35;;;;;;;21.04;41.83;94811.13;4212461;28;20055;-74
2023/10/29 09:32:13;;;;;;;11.27;3.38;;;;;;;21.05;41.89;94810.06;4213782;28;20056;-73